sensor_id;sensor_type;location;lat;lon;timestamp;P1;durP1;ratioP1;P2;durP2;ratioP2
40629;SDS011;26329;40.388;-3.710;2024-01-15T00:09:56;20.80;;;10.02;;
40629;SDS011;26329;40.388;-3.710;2024-01-15T00:19:57;24.15;;;10.57;;
40629;SDS011;26329;40.388;-3.710;2024-01-15T00:29:58;31.00;;;14.00;;
40629;SDS011;26329;40.388;-3.710;2024-01-15T00:40:00;27.40;;;11.07;;
40629;SDS011;26329;40.388;-3.710;2024-01-15T00:50:01;18.80;;;9.63;;
40629;SDS011;26329;40.388;-3.710;2024-01-15T01:00:03;24.33;;;12.77;;
40629;SDS011;26329;40.388;-3.710;2024-01-15T01:10:04;28.05;;;13.60;;
40629;SDS011;26329;40.388;-3.710;2024-01-15T01:20:06;24.55;;;11.90;;
40629;SDS011;26329;40.388;-3.710;2024-01-15T01:30:09;17.63;;;8.63;;
40629;SDS011;26329;40.388;-3.710;2024-01-15T01:40:10;23.08;;;12.00;;
40629;SDS011;26329;40.388;-3.710;2024-01-15T01:50:12;20.50;;;10.90;;
40629;SDS011;26329;40.388;-3.710;2024-01-15T02:00:13;24.60;;;9.98;;
40629;SDS011;26329;40.388;-3.710;2024-01-15T02:10:15;20.50;;;10.18;;
40629;SDS011;26329;40.388;-3.710;2024-01-15T02:20:16;21.65;;;9.35;;
40629;SDS011;26329;40.388;-3.710;2024-01-15T02:30:17;17.85;;;9.80;;
40629;SDS011;26329;40.388;-3.710;2024-01-15T02:40:18;20.13;;;10.20;;
40629;SDS011;26329;40.388;-3.710;2024-01-15T02:50:20;22.13;;;10.13;;
40629;SDS011;26329;40.388;-3.710;2024-01-15T03:00:21;18.23;;;10.10;;
40629;SDS011;26329;40.388;-3.710;2024-01-15T03:10:22;22.95;;;10.77;;
40629;SDS011;26329;40.388;-3.710;2024-01-15T03:20:23;27.02;;;10.60;;
40629;SDS011;26329;40.388;-3.710;2024-01-15T03:30:25;18.75;;;9.82;;
40629;SDS011;26329;40.388;-3.710;2024-01-15T03:40:26;21.73;;;9.52;;
40629;SDS011;26329;40.388;-3.710;2024-01-15T03:50:28;23.98;;;15.27;;
40629;SDS011;26329;40.388;-3.710;2024-01-15T04:00:29;16.27;;;9.35;;
40629;SDS011;26329;40.388;-3.710;2024-01-15T04:10:30;7.10;;;4.55;;
40629;SDS011;26329;40.388;-3.710;2024-01-15T04:20:31;5.30;;;4.30;;
40629;SDS011;26329;40.388;-3.710;2024-01-15T04:30:32;6.13;;;4.28;;
40629;SDS011;26329;40.388;-3.710;2024-01-15T04:40:33;8.95;;;5.88;;
40629;SDS011;26329;40.388;-3.710;2024-01-15T04:50:35;18.63;;;10.93;;
40629;SDS011;26329;40.388;-3.710;2024-01-15T05:00:36;21.63;;;13.00;;
40629;SDS011;26329;40.388;-3.710;2024-01-15T05:10:37;9.40;;;7.72;;
40629;SDS011;26329;40.388;-3.710;2024-01-15T05:20:38;7.78;;;6.93;;
40629;SDS011;26329;40.388;-3.710;2024-01-15T05:30:39;12.85;;;9.05;;
40629;SDS011;26329;40.388;-3.710;2024-01-15T05:40:40;7.85;;;5.93;;
40629;SDS011;26329;40.388;-3.710;2024-01-15T05:50:42;6.32;;;5.72;;
40629;SDS011;26329;40.388;-3.710;2024-01-15T06:00:43;7.78;;;5.47;;
40629;SDS011;26329;40.388;-3.710;2024-01-15T06:10:45;8.30;;;7.47;;
40629;SDS011;26329;40.388;-3.710;2024-01-15T06:20:46;13.70;;;7.72;;
40629;SDS011;26329;40.388;-3.710;2024-01-15T06:30:48;14.20;;;9.10;;
40629;SDS011;26329;40.388;-3.710;2024-01-15T06:40:49;14.00;;;8.98;;
40629;SDS011;26329;40.388;-3.710;2024-01-15T06:50:51;13.55;;;9.85;;
40629;SDS011;26329;40.388;-3.710;2024-01-15T07:00:54;15.23;;;10.45;;
40629;SDS011;26329;40.388;-3.710;2024-01-15T07:10:55;11.52;;;7.68;;
40629;SDS011;26329;40.388;-3.710;2024-01-15T07:20:56;9.10;;;7.43;;
40629;SDS011;26329;40.388;-3.710;2024-01-15T07:30:58;15.68;;;13.43;;
40629;SDS011;26329;40.388;-3.710;2024-01-15T07:41:01;12.27;;;10.33;;
40629;SDS011;26329;40.388;-3.710;2024-01-15T07:51:02;13.20;;;10.13;;
40629;SDS011;26329;40.388;-3.710;2024-01-15T08:01:04;12.48;;;11.18;;
40629;SDS011;26329;40.388;-3.710;2024-01-15T08:11:06;12.45;;;9.10;;
40629;SDS011;26329;40.388;-3.710;2024-01-15T08:21:07;15.70;;;11.95;;
40629;SDS011;26329;40.388;-3.710;2024-01-15T08:31:08;11.43;;;8.23;;
40629;SDS011;26329;40.388;-3.710;2024-01-15T08:41:09;10.07;;;7.90;;
40629;SDS011;26329;40.388;-3.710;2024-01-15T08:51:11;11.45;;;6.85;;
40629;SDS011;26329;40.388;-3.710;2024-01-15T09:01:12;9.90;;;8.02;;
40629;SDS011;26329;40.388;-3.710;2024-01-15T09:11:13;14.93;;;9.07;;
40629;SDS011;26329;40.388;-3.710;2024-01-15T09:21:14;14.45;;;9.75;;
40629;SDS011;26329;40.388;-3.710;2024-01-15T09:31:15;15.27;;;8.13;;
40629;SDS011;26329;40.388;-3.710;2024-01-15T09:41:20;10.93;;;7.57;;
40629;SDS011;26329;40.388;-3.710;2024-01-15T09:51:21;11.60;;;7.93;;
40629;SDS011;26329;40.388;-3.710;2024-01-15T10:01:22;6.93;;;5.28;;
40629;SDS011;26329;40.388;-3.710;2024-01-15T10:11:23;4.00;;;3.60;;
40629;SDS011;26329;40.388;-3.710;2024-01-15T10:21:25;6.95;;;3.63;;
40629;SDS011;26329;40.388;-3.710;2024-01-15T10:31:26;4.03;;;2.75;;
40629;SDS011;26329;40.388;-3.710;2024-01-15T10:41:28;3.75;;;2.50;;
40629;SDS011;26329;40.388;-3.710;2024-01-15T10:51:30;3.95;;;3.17;;
40629;SDS011;26329;40.388;-3.710;2024-01-15T11:01:31;4.70;;;3.45;;
40629;SDS011;26329;40.388;-3.710;2024-01-15T11:11:41;3.30;;;3.00;;
40629;SDS011;26329;40.388;-3.710;2024-01-15T11:21:43;6.28;;;5.10;;
40629;SDS011;26329;40.388;-3.710;2024-01-15T11:41:48;9.48;;;8.52;;
40629;SDS011;26329;40.388;-3.710;2024-01-15T11:51:49;7.70;;;6.95;;
40629;SDS011;26329;40.388;-3.710;2024-01-15T12:01:51;8.57;;;7.45;;
40629;SDS011;26329;40.388;-3.710;2024-01-15T12:11:59;8.60;;;4.18;;
40629;SDS011;26329;40.388;-3.710;2024-01-15T12:22:05;2.45;;;1.35;;
40629;SDS011;26329;40.388;-3.710;2024-01-15T12:32:08;0.50;;;0.20;;
40629;SDS011;26329;40.388;-3.710;2024-01-15T12:42:10;0.90;;;0.20;;
40629;SDS011;26329;40.388;-3.710;2024-01-15T12:52:11;1.65;;;0.15;;
40629;SDS011;26329;40.388;-3.710;2024-01-15T13:02:15;0.55;;;0.10;;
40629;SDS011;26329;40.388;-3.710;2024-01-15T13:12:17;0.10;;;0.00;;
40629;SDS011;26329;40.388;-3.710;2024-01-15T13:22:18;0.35;;;0.10;;
40629;SDS011;26329;40.388;-3.710;2024-01-15T13:32:28;4.00;;;0.10;;
40629;SDS011;26329;40.388;-3.710;2024-01-15T13:42:30;0.52;;;0.20;;
40629;SDS011;26329;40.388;-3.710;2024-01-15T13:52:31;0.15;;;0.00;;
40629;SDS011;26329;40.388;-3.710;2024-01-15T14:02:33;0.13;;;0.08;;
40629;SDS011;26329;40.388;-3.710;2024-01-15T14:12:34;0.80;;;0.10;;
40629;SDS011;26329;40.388;-3.710;2024-01-15T14:22:36;0.70;;;0.08;;
40629;SDS011;26329;40.388;-3.710;2024-01-15T14:32:37;0.77;;;0.10;;
40629;SDS011;26329;40.388;-3.710;2024-01-15T14:42:38;1.08;;;0.10;;
40629;SDS011;26329;40.388;-3.710;2024-01-15T14:52:39;1.50;;;0.10;;
40629;SDS011;26329;40.388;-3.710;2024-01-15T15:02:44;2.65;;;1.90;;
40629;SDS011;26329;40.388;-3.710;2024-01-15T15:12:46;8.23;;;0.35;;
40629;SDS011;26329;40.388;-3.710;2024-01-15T15:22:47;1.38;;;0.30;;
40629;SDS011;26329;40.388;-3.710;2024-01-15T15:32:49;1.92;;;0.15;;
40629;SDS011;26329;40.388;-3.710;2024-01-15T15:42:50;2.17;;;0.20;;
40629;SDS011;26329;40.388;-3.710;2024-01-15T15:52:51;1.40;;;0.20;;
40629;SDS011;26329;40.388;-3.710;2024-01-15T16:02:53;2.95;;;0.25;;
40629;SDS011;26329;40.388;-3.710;2024-01-15T16:12:54;3.05;;;0.93;;
40629;SDS011;26329;40.388;-3.710;2024-01-15T16:22:55;0.80;;;0.28;;
40629;SDS011;26329;40.388;-3.710;2024-01-15T16:32:56;4.63;;;0.85;;
40629;SDS011;26329;40.388;-3.710;2024-01-15T16:42:57;1.40;;;0.40;;
40629;SDS011;26329;40.388;-3.710;2024-01-15T16:52:58;1.38;;;0.50;;
40629;SDS011;26329;40.388;-3.710;2024-01-15T17:03:01;3.10;;;0.63;;
40629;SDS011;26329;40.388;-3.710;2024-01-15T17:13:02;0.90;;;0.30;;
40629;SDS011;26329;40.388;-3.710;2024-01-15T17:23:04;1.15;;;0.50;;
40629;SDS011;26329;40.388;-3.710;2024-01-15T17:33:05;11.65;;;10.38;;
40629;SDS011;26329;40.388;-3.710;2024-01-15T17:43:06;2.85;;;1.05;;
40629;SDS011;26329;40.388;-3.710;2024-01-15T17:53:08;4.05;;;3.58;;
40629;SDS011;26329;40.388;-3.710;2024-01-15T18:03:10;1.40;;;1.30;;
40629;SDS011;26329;40.388;-3.710;2024-01-15T18:13:12;2.47;;;2.30;;
40629;SDS011;26329;40.388;-3.710;2024-01-15T18:23:13;1.10;;;1.00;;
40629;SDS011;26329;40.388;-3.710;2024-01-15T18:33:14;1.05;;;0.90;;
40629;SDS011;26329;40.388;-3.710;2024-01-15T18:43:15;1.70;;;1.60;;
40629;SDS011;26329;40.388;-3.710;2024-01-15T18:53:17;3.03;;;2.83;;
40629;SDS011;26329;40.388;-3.710;2024-01-15T19:03:18;3.30;;;3.10;;
40629;SDS011;26329;40.388;-3.710;2024-01-15T19:13:19;4.35;;;4.05;;
40629;SDS011;26329;40.388;-3.710;2024-01-15T19:23:20;3.40;;;3.20;;
40629;SDS011;26329;40.388;-3.710;2024-01-15T19:33:21;3.53;;;3.33;;
40629;SDS011;26329;40.388;-3.710;2024-01-15T19:43:23;3.17;;;3.08;;
40629;SDS011;26329;40.388;-3.710;2024-01-15T19:53:25;3.50;;;3.30;;
40629;SDS011;26329;40.388;-3.710;2024-01-15T20:03:27;4.30;;;4.10;;
40629;SDS011;26329;40.388;-3.710;2024-01-15T20:13:28;6.68;;;4.55;;
40629;SDS011;26329;40.388;-3.710;2024-01-15T20:23:31;6.30;;;5.70;;
40629;SDS011;26329;40.388;-3.710;2024-01-15T20:33:33;8.10;;;7.20;;
40629;SDS011;26329;40.388;-3.710;2024-01-15T20:43:35;7.80;;;7.00;;
40629;SDS011;26329;40.388;-3.710;2024-01-15T20:53:36;6.22;;;4.10;;
40629;SDS011;26329;40.388;-3.710;2024-01-15T21:03:37;3.55;;;3.25;;
40629;SDS011;26329;40.388;-3.710;2024-01-15T21:13:39;5.70;;;3.05;;
40629;SDS011;26329;40.388;-3.710;2024-01-15T21:23:40;6.10;;;2.13;;
40629;SDS011;26329;40.388;-3.710;2024-01-15T21:33:41;2.70;;;1.30;;
40629;SDS011;26329;40.388;-3.710;2024-01-15T21:43:45;2.78;;;1.02;;
40629;SDS011;26329;40.388;-3.710;2024-01-15T21:53:47;4.72;;;1.23;;
40629;SDS011;26329;40.388;-3.710;2024-01-15T22:03:48;2.90;;;1.00;;
40629;SDS011;26329;40.388;-3.710;2024-01-15T22:13:49;3.25;;;0.60;;
40629;SDS011;26329;40.388;-3.710;2024-01-15T22:23:50;3.63;;;1.10;;
40629;SDS011;26329;40.388;-3.710;2024-01-15T22:33:51;2.58;;;1.35;;
40629;SDS011;26329;40.388;-3.710;2024-01-15T22:43:53;1.92;;;1.20;;
40629;SDS011;26329;40.388;-3.710;2024-01-15T22:53:54;2.55;;;0.57;;
40629;SDS011;26329;40.388;-3.710;2024-01-15T23:03:55;3.47;;;1.20;;
40629;SDS011;26329;40.388;-3.710;2024-01-15T23:13:56;6.28;;;1.20;;
40629;SDS011;26329;40.388;-3.710;2024-01-15T23:23:58;5.82;;;0.82;;
40629;SDS011;26329;40.388;-3.710;2024-01-15T23:33:59;5.80;;;0.82;;
40629;SDS011;26329;40.388;-3.710;2024-01-15T23:44:00;4.50;;;1.30;;
